createdAt,value
2022-12-02T00:00:24.552Z,6.25
2022-12-02T00:10:33.671Z,6.15
2022-12-02T00:20:36.849Z,6.09
2022-12-02T00:30:42.026Z,5.87
2022-12-02T00:40:45.239Z,6.10
2022-12-02T00:50:49.849Z,5.98
2022-12-02T01:00:53.320Z,5.96
2022-12-02T01:10:58.775Z,5.93
2022-12-02T01:21:01.968Z,5.66
2022-12-02T01:31:07.071Z,5.94
2022-12-02T01:41:10.560Z,5.80
2022-12-02T01:51:14.860Z,5.68
2022-12-02T02:01:26.294Z,5.48
2022-12-02T02:11:31.000Z,5.64
2022-12-02T02:21:40.869Z,5.63
2022-12-02T02:31:45.580Z,5.57
2022-12-02T02:41:49.102Z,5.71
2022-12-02T02:51:53.873Z,5.51
2022-12-02T03:01:58.375Z,5.65
2022-12-02T03:12:03.847Z,5.61
2022-12-02T03:22:07.764Z,5.58
2022-12-02T03:32:13.342Z,5.72
2022-12-02T03:42:16.875Z,5.73
2022-12-02T03:52:21.307Z,5.48
2022-12-02T04:02:24.541Z,5.61
2022-12-02T04:12:29.027Z,5.63
2022-12-02T04:22:32.328Z,5.64
2022-12-02T04:32:36.828Z,5.60
2022-12-02T04:42:39.883Z,5.69
2022-12-02T04:52:44.392Z,5.59
2022-12-02T05:02:47.466Z,5.67
2022-12-02T05:12:51.953Z,5.55
2022-12-02T05:22:55.139Z,5.58
2022-12-02T05:32:59.545Z,5.56
2022-12-02T05:43:16.974Z,5.48
2022-12-02T05:53:24.612Z,5.60
2022-12-02T06:03:28.218Z,5.46
2022-12-02T06:13:36.576Z,5.44
2022-12-02T06:23:44.900Z,5.26
2022-12-02T06:33:50.879Z,5.52
2022-12-02T06:44:16.892Z,5.40
2022-12-02T06:54:24.242Z,5.47
2022-12-02T07:04:35.494Z,5.27
2022-12-02T07:14:46.177Z,5.40
2022-12-02T07:24:55.974Z,5.53
2022-12-02T07:35:00.445Z,5.42
2022-12-02T07:45:03.502Z,5.31
2022-12-02T07:55:09.300Z,5.41
2022-12-02T08:05:13.210Z,5.43
2022-12-02T08:15:17.691Z,5.51
2022-12-02T08:25:20.708Z,5.66
2022-12-02T08:35:25.768Z,5.67
2022-12-02T08:45:28.813Z,5.56
2022-12-02T08:55:33.167Z,5.65
2022-12-02T09:05:36.983Z,5.62
2022-12-02T09:15:41.400Z,5.61
2022-12-02T09:25:44.180Z,5.74
2022-12-02T09:35:48.628Z,5.50
2022-12-02T09:45:51.981Z,5.72
2022-12-02T09:55:56.952Z,5.72
2022-12-02T10:06:02.437Z,5.68
2022-12-02T10:16:12.601Z,5.79
2022-12-02T10:26:15.951Z,5.77
2022-12-02T10:36:36.800Z,5.90
2022-12-02T10:46:40.498Z,5.85
2022-12-02T10:56:44.829Z,5.88
2022-12-02T11:06:49.439Z,5.95
2022-12-02T11:17:13.443Z,5.52
2022-12-02T11:27:18.804Z,5.76
2022-12-02T11:37:41.890Z,5.92
2022-12-02T11:47:46.658Z,5.73
2022-12-02T11:57:53.688Z,5.85
2022-12-02T12:08:02.741Z,5.82
2022-12-02T12:18:07.851Z,5.59
2022-12-02T12:28:24.481Z,5.29
2022-12-02T12:38:31.202Z,5.17
2022-12-02T12:48:34.695Z,4.89
2022-12-02T12:58:38.968Z,5.05
2022-12-02T13:08:42.341Z,5.28
2022-12-02T13:18:47.472Z,4.91
2022-12-02T13:28:53.013Z,4.79
2022-12-02T13:39:02.565Z,4.89
2022-12-02T13:49:08.908Z,5.04
2022-12-02T13:59:13.761Z,5.31
2022-12-02T14:09:16.791Z,5.19
2022-12-02T14:19:21.078Z,5.27
2022-12-02T14:29:24.285Z,5.42
2022-12-02T14:39:28.621Z,5.31
2022-12-02T14:49:39.694Z,5.44
2022-12-02T14:59:45.152Z,5.44
2022-12-02T15:09:48.183Z,5.25
2022-12-02T15:19:55.536Z,5.30
2022-12-02T15:29:58.978Z,4.94
2022-12-02T15:40:03.596Z,5.15
2022-12-02T15:50:08.772Z,4.71
2022-12-02T16:00:15.138Z,4.81
2022-12-02T16:10:18.714Z,4.83
2022-12-02T16:20:23.881Z,4.65
2022-12-02T16:30:27.154Z,4.49
2022-12-02T16:40:31.539Z,4.53
2022-12-02T16:50:35.078Z,4.52
2022-12-02T17:00:39.599Z,5.12
2022-12-02T17:10:42.553Z,4.41
2022-12-02T17:20:51.013Z,4.70
2022-12-02T17:30:56.832Z,4.90
2022-12-02T17:41:13.063Z,4.55
2022-12-02T17:51:17.407Z,4.70
2022-12-02T18:01:22.168Z,4.84
2022-12-02T18:11:25.316Z,4.68
2022-12-02T18:21:29.582Z,4.64
2022-12-02T18:31:32.710Z,4.58
2022-12-02T18:41:37.103Z,4.53
2022-12-02T18:51:40.122Z,4.76
2022-12-02T19:01:44.951Z,4.78
2022-12-02T19:11:48.208Z,4.74
2022-12-02T19:21:52.992Z,4.55
2022-12-02T19:31:56.745Z,4.29
2022-12-02T19:42:01.755Z,4.52
2022-12-02T19:52:04.869Z,4.46
2022-12-02T20:02:09.946Z,4.35
2022-12-02T20:12:13.106Z,4.20
2022-12-02T20:22:17.566Z,4.37
2022-12-02T20:32:20.781Z,4.03
2022-12-02T20:42:25.785Z,4.36
2022-12-02T20:52:29.100Z,3.83
2022-12-02T21:02:33.700Z,3.88
2022-12-02T21:12:36.857Z,4.03
2022-12-02T21:22:41.458Z,4.25
2022-12-02T21:32:44.750Z,4.14
2022-12-02T21:42:49.283Z,3.93
2022-12-02T21:52:52.389Z,4.07
2022-12-02T22:02:57.076Z,4.01
2022-12-02T22:13:00.737Z,3.87
2022-12-02T22:23:05.197Z,4.00
2022-12-02T22:33:08.060Z,4.00
2022-12-02T22:43:12.414Z,4.03
2022-12-02T22:53:15.482Z,3.86
2022-12-02T23:03:19.978Z,3.98
2022-12-02T23:13:23.142Z,3.76
2022-12-02T23:23:27.893Z,3.88
2022-12-02T23:33:31.155Z,3.70
2022-12-02T23:43:35.653Z,3.76
2022-12-02T23:53:38.771Z,3.81
